MZW weather

Mecheria Airport
Mecheria, Naama Province, Algeria

Public forecast

Using degrees Celsius for public forecast. Weather courtesy of forecast.io.

Current aviation weather report (METAR) for Mecheria Airport

Retrieved 2020/04/09 00:00 UTC (41 minutes ago):

DAAY 090000Z 00000KT 9999 SCT030 SCT100 16/14 Q1024

Aviation forecast (TAF) for Mecheria Airport

Forecast is more than 12 hours old.

Retrieved 2019/12/03 18:48 UTC (4 months ago):

TAF TAF DAAY 031700Z 0318/0406 24012KT 8000 FEW023TCU SCT030 PROB40 TEMPO 0318/0321 24015G25KT 5000 -TSRA FEW023CB